createdAt,value
2023-03-29T00:00:14.177Z,99586.97
2023-03-29T00:02:43.729Z,99596.31
2023-03-29T00:05:12.386Z,99598.19
2023-03-29T00:07:39.728Z,99593.03
2023-03-29T00:10:10.285Z,99599.66
2023-03-29T00:12:41.629Z,99597.91
2023-03-29T00:15:09.772Z,99595.94
2023-03-29T00:17:37.527Z,99597.50
2023-03-29T00:20:10.349Z,99600.19
2023-03-29T00:22:40.152Z,99602.47
2023-03-29T00:25:11.538Z,99610.66
2023-03-29T00:27:39.454Z,99602.94
2023-03-29T00:30:10.217Z,99603.91
2023-03-29T00:32:38.082Z,99610.66
2023-03-29T00:35:07.434Z,99612.00
2023-03-29T00:37:35.079Z,99609.22
2023-03-29T00:40:05.027Z,99604.47
2023-03-29T00:42:32.595Z,99605.72
2023-03-29T00:45:18.924Z,99604.72
2023-03-29T00:47:57.922Z,99595.97
2023-03-29T00:50:36.356Z,99596.59
2023-03-29T00:53:13.094Z,99603.13
2023-03-29T00:55:59.518Z,99597.75
2023-03-29T00:58:51.920Z,99593.53
2023-03-29T01:01:28.446Z,99588.81
2023-03-29T01:04:18.000Z,99584.72
2023-03-29T01:06:58.785Z,99585.13
2023-03-29T01:09:30.407Z,99580.72
2023-03-29T01:12:05.532Z,99574.66
2023-03-29T01:14:45.418Z,99576.47
2023-03-29T01:17:13.066Z,99574.44
2023-03-29T01:19:59.354Z,99566.81
2023-03-29T01:23:04.386Z,99570.94
2023-03-29T01:25:37.404Z,99564.88
2023-03-29T01:28:22.675Z,99566.53
2023-03-29T01:31:03.908Z,99569.09
2023-03-29T01:33:48.861Z,99571.56
2023-03-29T01:36:27.576Z,99562.31
2023-03-29T01:39:03.412Z,99548.28
2023-03-29T01:41:58.271Z,99547.56
2023-03-29T01:44:45.559Z,99544.88
2023-03-29T01:47:33.127Z,99545.69
2023-03-29T01:50:17.929Z,99547.38
2023-03-29T01:53:06.063Z,99535.41
2023-03-29T01:55:48.033Z,99545.28
2023-03-29T01:58:18.155Z,99549.06
2023-03-29T02:00:49.242Z,99540.63
2023-03-29T02:03:19.889Z,99542.56
2023-03-29T02:05:48.351Z,99532.28
2023-03-29T02:08:18.447Z,99539.28
2023-03-29T02:10:46.636Z,99536.28
2023-03-29T02:13:14.261Z,99539.03
2023-03-29T02:15:44.457Z,99535.00
2023-03-29T02:18:16.430Z,99543.94
2023-03-29T02:20:48.726Z,99534.25
2023-03-29T02:23:27.370Z,99537.59
2023-03-29T02:25:57.017Z,99534.03
2023-03-29T02:28:28.256Z,99544.72
2023-03-29T02:31:07.990Z,99541.06
2023-03-29T02:33:53.134Z,99557.63
2023-03-29T02:36:47.453Z,99554.22
2023-03-29T02:39:17.847Z,99558.00
2023-03-29T02:41:50.558Z,99560.25
2023-03-29T02:44:27.100Z,99563.88
2023-03-29T02:47:03.194Z,99567.63
2023-03-29T02:49:30.924Z,99567.00
2023-03-29T02:52:09.180Z,99569.50
2023-03-29T02:54:43.437Z,99569.66
2023-03-29T02:57:12.396Z,99570.34
2023-03-29T02:59:41.039Z,99575.03
2023-03-29T03:02:09.600Z,99573.16
2023-03-29T03:04:37.702Z,99576.28
2023-03-29T03:07:05.390Z,99574.00
2023-03-29T03:09:32.967Z,99571.91
2023-03-29T03:12:00.501Z,99577.97
2023-03-29T03:14:28.317Z,99566.88
2023-03-29T03:16:58.495Z,99573.56
2023-03-29T03:19:25.975Z,99572.06
2023-03-29T03:21:53.364Z,99572.06
2023-03-29T03:24:22.319Z,99582.25
2023-03-29T03:26:50.064Z,99578.13
2023-03-29T03:29:19.309Z,99586.47
2023-03-29T03:32:19.294Z,99582.69
2023-03-29T03:34:55.280Z,99582.41
2023-03-29T03:37:25.892Z,99587.28
2023-03-29T03:39:54.005Z,99586.34
2023-03-29T03:42:21.683Z,99599.97
2023-03-29T03:44:50.022Z,99592.41
2023-03-29T03:47:51.519Z,99590.78
2023-03-29T03:50:38.288Z,99589.13
2023-03-29T03:53:07.252Z,99594.44
2023-03-29T03:55:59.038Z,99590.06
2023-03-29T03:58:32.482Z,99586.72
2023-03-29T04:01:00.234Z,99583.72
2023-03-29T04:03:39.277Z,99587.13
2023-03-29T04:06:09.841Z,99587.94
2023-03-29T04:09:06.212Z,99587.31
2023-03-29T04:11:42.970Z,99582.84
2023-03-29T04:14:11.717Z,99580.00
2023-03-29T04:16:57.794Z,99585.53
2023-03-29T04:20:12.374Z,99590.47
2023-03-29T04:22:41.353Z,99588.53
2023-03-29T04:25:10.494Z,99581.00
2023-03-29T04:28:13.342Z,99579.34
2023-03-29T04:30:49.006Z,99583.25
2023-03-29T04:33:34.734Z,99581.03
2023-03-29T04:36:02.246Z,99587.00
2023-03-29T04:38:36.122Z,99583.16
2023-03-29T04:41:05.045Z,99593.69
2023-03-29T04:43:52.199Z,99592.50
2023-03-29T04:46:28.533Z,99599.66
2023-03-29T04:49:14.720Z,99589.91
2023-03-29T04:51:46.421Z,99586.72
2023-03-29T04:54:19.086Z,99592.69
2023-03-29T04:57:09.198Z,99586.94
2023-03-29T04:59:46.917Z,99591.16
2023-03-29T05:02:37.032Z,99595.72
2023-03-29T05:05:05.085Z,99598.69
2023-03-29T05:07:32.952Z,99587.38
2023-03-29T05:10:00.287Z,99593.38
2023-03-29T05:12:27.837Z,99590.91
2023-03-29T05:14:57.855Z,99594.34
2023-03-29T05:17:27.470Z,99596.09
2023-03-29T05:20:01.405Z,99599.50
2023-03-29T05:22:29.769Z,99611.03
2023-03-29T05:24:57.601Z,99606.72
2023-03-29T05:27:25.498Z,99607.22
2023-03-29T05:30:01.805Z,99614.06
2023-03-29T05:32:47.023Z,99611.66
2023-03-29T05:35:17.955Z,99617.97
2023-03-29T05:37:47.384Z,99613.91
2023-03-29T05:40:15.228Z,99623.50
2023-03-29T05:43:12.211Z,99614.69
2023-03-29T05:45:39.969Z,99609.28
2023-03-29T05:48:07.487Z,99599.91
2023-03-29T05:50:37.223Z,99610.69
2023-03-29T05:53:05.835Z,99602.56
2023-03-29T05:55:34.070Z,99602.06
2023-03-29T05:58:01.486Z,99600.72
2023-03-29T06:00:36.845Z,99608.38
2023-03-29T06:03:25.469Z,99629.69
2023-03-29T06:06:03.921Z,99625.91
2023-03-29T06:08:35.027Z,99617.22
2023-03-29T06:11:13.512Z,99613.00
2023-03-29T06:14:16.342Z,99614.59
2023-03-29T06:16:51.592Z,99616.16
2023-03-29T06:19:19.321Z,99615.81
2023-03-29T06:21:47.861Z,99621.22
2023-03-29T06:24:20.846Z,99640.66
2023-03-29T06:26:54.656Z,99635.69
2023-03-29T06:29:22.900Z,99628.94
2023-03-29T06:31:50.922Z,99616.38
2023-03-29T06:34:38.692Z,99606.94
2023-03-29T06:37:31.938Z,99599.63
2023-03-29T06:40:19.264Z,99603.47
2023-03-29T06:42:48.876Z,99599.84
2023-03-29T06:45:20.625Z,99590.50
2023-03-29T06:47:51.094Z,99597.56
2023-03-29T06:50:19.643Z,99601.84
2023-03-29T06:52:54.277Z,99614.16
2023-03-29T06:55:22.820Z,99593.41
2023-03-29T06:57:50.934Z,99594.78
2023-03-29T07:00:27.950Z,99601.88
2023-03-29T07:03:09.977Z,99604.00
2023-03-29T07:05:40.811Z,99603.47
2023-03-29T07:08:13.877Z,99594.50
2023-03-29T07:10:59.434Z,99595.28
2023-03-29T07:13:46.307Z,99588.78
2023-03-29T07:16:19.334Z,99587.47
2023-03-29T07:19:22.680Z,99595.09
2023-03-29T07:21:56.160Z,99585.47
2023-03-29T07:24:43.942Z,99591.00
2023-03-29T07:28:11.406Z,99605.31
2023-03-29T07:30:39.448Z,99616.00
2023-03-29T07:33:13.652Z,99606.03
2023-03-29T07:35:53.665Z,99591.81
2023-03-29T07:38:21.462Z,99582.50
2023-03-29T07:40:55.417Z,99577.06
2023-03-29T07:43:31.806Z,99571.34
2023-03-29T07:46:04.884Z,99588.88
2023-03-29T07:48:37.135Z,99584.25
2023-03-29T07:51:07.936Z,99595.13
2023-03-29T07:54:06.490Z,99578.09
2023-03-29T07:56:48.423Z,99576.16
2023-03-29T07:59:16.606Z,99570.66
2023-03-29T08:01:46.895Z,99574.59
2023-03-29T08:04:26.604Z,99577.47
2023-03-29T08:07:13.810Z,99573.66
2023-03-29T08:10:00.293Z,99562.38
2023-03-29T08:12:52.352Z,99573.97
2023-03-29T08:15:23.908Z,99562.31
2023-03-29T08:17:51.722Z,99560.69
2023-03-29T08:20:20.055Z,99560.69
2023-03-29T08:22:52.279Z,99565.09
2023-03-29T08:25:23.034Z,99570.66
2023-03-29T08:27:53.596Z,99583.19
2023-03-29T08:30:42.139Z,99581.78
2023-03-29T08:33:09.956Z,99566.28
2023-03-29T08:35:37.667Z,99581.13
2023-03-29T08:38:19.295Z,99575.72
2023-03-29T08:40:49.582Z,99579.69
2023-03-29T08:43:42.822Z,99574.03
2023-03-29T08:46:51.949Z,99588.66
2023-03-29T08:49:30.773Z,99582.94
2023-03-29T08:52:04.841Z,99586.31
2023-03-29T08:54:43.633Z,99596.53
2023-03-29T08:57:30.662Z,99588.06
2023-03-29T09:00:10.609Z,99587.66
2023-03-29T09:02:43.542Z,99589.09
2023-03-29T09:05:25.917Z,99583.75
2023-03-29T09:08:18.281Z,99595.44
2023-03-29T09:11:18.852Z,99584.06
2023-03-29T09:14:16.394Z,99563.47
2023-03-29T09:16:59.252Z,99569.31
2023-03-29T09:19:52.555Z,99573.25
2023-03-29T09:22:57.757Z,99560.09
2023-03-29T09:26:20.838Z,99560.63
2023-03-29T09:29:58.292Z,99568.72
2023-03-29T09:32:54.680Z,99555.75
2023-03-29T09:36:30.155Z,99549.13
2023-03-29T09:38:57.970Z,99555.69
2023-03-29T09:41:59.406Z,99547.25
2023-03-29T09:44:41.547Z,99542.88
2023-03-29T09:47:27.158Z,99550.34
2023-03-29T09:50:04.385Z,99555.72
2023-03-29T09:52:32.872Z,99549.56
2023-03-29T09:55:18.779Z,99542.69
2023-03-29T09:58:18.131Z,99546.34
2023-03-29T10:00:51.101Z,99547.28
2023-03-29T10:03:27.361Z,99540.19
2023-03-29T10:06:12.264Z,99537.31
2023-03-29T10:08:52.902Z,99537.03
2023-03-29T10:11:32.965Z,99531.31
2023-03-29T10:14:12.361Z,99513.38
2023-03-29T10:16:46.407Z,99523.63
2023-03-29T10:19:29.179Z,99512.41
2023-03-29T10:22:01.729Z,99512.31
2023-03-29T10:24:29.219Z,99499.06
2023-03-29T10:27:10.929Z,99500.53
2023-03-29T10:29:42.573Z,99483.66
2023-03-29T10:32:22.955Z,99485.66
2023-03-29T10:34:53.650Z,99497.00
2023-03-29T10:37:22.999Z,99485.69
2023-03-29T10:39:51.916Z,99477.69
2023-03-29T10:42:24.526Z,99475.53
2023-03-29T10:44:58.619Z,99479.53
2023-03-29T10:47:31.640Z,99472.38
2023-03-29T10:49:59.381Z,99474.91
2023-03-29T10:52:29.220Z,99471.13
2023-03-29T10:54:57.217Z,99464.31
2023-03-29T10:58:00.150Z,99456.16
2023-03-29T11:00:42.750Z,99456.88
2023-03-29T11:03:50.944Z,99453.06
2023-03-29T11:06:43.043Z,99450.88
2023-03-29T11:09:54.845Z,99451.44
2023-03-29T11:13:11.913Z,99436.31
2023-03-29T11:15:52.228Z,99445.53
2023-03-29T11:18:49.836Z,99438.13
2023-03-29T11:21:36.035Z,99436.28
2023-03-29T11:24:42.995Z,99434.13
2023-03-29T11:27:28.733Z,99422.19
2023-03-29T11:30:27.373Z,99419.69
2023-03-29T11:33:31.821Z,99415.16
2023-03-29T11:36:32.360Z,99419.47
2023-03-29T11:39:11.398Z,99402.72
2023-03-29T11:41:45.030Z,99401.63
2023-03-29T11:44:24.669Z,99398.63
2023-03-29T11:47:02.110Z,99394.91
2023-03-29T11:49:38.345Z,99392.84
2023-03-29T11:52:29.659Z,99387.00
2023-03-29T11:55:12.631Z,99378.06
2023-03-29T11:57:54.015Z,99377.69
2023-03-29T12:00:41.036Z,99362.75
2023-03-29T12:03:38.667Z,99362.47
2023-03-29T12:06:14.180Z,99347.59
2023-03-29T12:08:48.011Z,99353.50
2023-03-29T12:11:40.439Z,99354.50
2023-03-29T12:14:27.951Z,99358.50
2023-03-29T12:17:09.242Z,99349.59
2023-03-29T12:20:15.243Z,99342.78
2023-03-29T12:22:51.079Z,99322.81
2023-03-29T12:25:37.465Z,99323.09
2023-03-29T12:28:36.717Z,99328.09
2023-03-29T12:31:51.603Z,99326.41
2023-03-29T12:34:50.243Z,99316.59
2023-03-29T12:38:25.234Z,99315.94
2023-03-29T12:41:23.421Z,99317.59
2023-03-29T12:44:04.677Z,99315.47
2023-03-29T12:47:00.408Z,99320.59
2023-03-29T12:49:33.977Z,99312.94
2023-03-29T12:52:22.608Z,99301.13
2023-03-29T12:54:59.840Z,99295.38
2023-03-29T12:57:45.093Z,99289.63
2023-03-29T13:00:26.002Z,99293.56
2023-03-29T13:03:29.159Z,99297.31
2023-03-29T13:06:09.015Z,99293.44
2023-03-29T13:08:44.977Z,99285.19
2023-03-29T13:11:41.401Z,99281.66
2023-03-29T13:14:19.249Z,99291.53
2023-03-29T13:16:47.880Z,99289.53
2023-03-29T13:19:26.826Z,99290.53
2023-03-29T13:22:06.834Z,99291.44
2023-03-29T13:25:38.688Z,99283.38
2023-03-29T13:28:37.073Z,99287.38
2023-03-29T13:31:36.180Z,99272.84
2023-03-29T13:34:31.208Z,99278.31
2023-03-29T13:37:08.471Z,99280.94
2023-03-29T13:39:37.381Z,99276.50
2023-03-29T13:42:34.310Z,99272.69
2023-03-29T13:45:23.162Z,99270.53
2023-03-29T13:48:22.968Z,99263.09
2023-03-29T13:51:07.999Z,99260.66
2023-03-29T13:53:44.181Z,99255.38
2023-03-29T13:56:23.457Z,99252.59
2023-03-29T13:59:05.653Z,99254.63
2023-03-29T14:01:47.069Z,99249.97
2023-03-29T14:04:24.788Z,99246.28
2023-03-29T14:06:56.512Z,99246.22
2023-03-29T14:09:32.892Z,99238.03
2023-03-29T14:12:01.139Z,99237.22
2023-03-29T14:14:32.709Z,99230.31
2023-03-29T14:17:01.351Z,99220.75
2023-03-29T14:19:36.315Z,99227.53
2023-03-29T14:22:13.790Z,99225.53
2023-03-29T14:24:56.879Z,99227.28
2023-03-29T14:27:24.613Z,99227.53
2023-03-29T14:29:52.385Z,99215.66
2023-03-29T14:32:31.681Z,99222.84
2023-03-29T14:35:00.775Z,99225.53
2023-03-29T14:37:30.121Z,99219.13
2023-03-29T14:39:59.244Z,99231.91
2023-03-29T14:42:28.952Z,99217.03
2023-03-29T14:45:06.055Z,99218.16
2023-03-29T14:47:34.360Z,99217.34
2023-03-29T14:50:03.913Z,99224.66
2023-03-29T14:52:32.390Z,99217.94
2023-03-29T14:55:02.330Z,99221.72
2023-03-29T14:57:36.501Z,99218.56
2023-03-29T15:00:30.172Z,99213.31
2023-03-29T15:03:02.987Z,99219.97
2023-03-29T15:05:41.191Z,99220.94
2023-03-29T15:08:34.121Z,99222.78
2023-03-29T15:11:03.149Z,99228.94
2023-03-29T15:13:31.123Z,99239.97
2023-03-29T15:16:04.436Z,99232.50
2023-03-29T15:18:40.992Z,99235.53
2023-03-29T15:21:11.318Z,99230.22
2023-03-29T15:23:48.266Z,99218.75
2023-03-29T15:26:23.338Z,99218.38
2023-03-29T15:29:03.045Z,99229.72
2023-03-29T15:31:37.061Z,99230.56
2023-03-29T15:34:25.907Z,99230.16
2023-03-29T15:36:54.293Z,99245.66
2023-03-29T15:39:22.035Z,99239.75
2023-03-29T15:41:52.691Z,99244.06
2023-03-29T15:44:33.444Z,99236.84
2023-03-29T15:47:00.985Z,99236.03
2023-03-29T15:49:29.220Z,99239.28
2023-03-29T15:51:56.734Z,99242.41
2023-03-29T15:54:24.961Z,99245.81
2023-03-29T15:57:07.332Z,99251.22
2023-03-29T15:59:36.379Z,99242.97
2023-03-29T16:02:05.154Z,99248.63
2023-03-29T16:04:32.598Z,99248.19
2023-03-29T16:07:01.359Z,99242.19
2023-03-29T16:09:29.446Z,99245.03
2023-03-29T16:11:56.880Z,99234.66
2023-03-29T16:14:34.022Z,99238.19
2023-03-29T16:17:03.354Z,99242.41
2023-03-29T16:19:32.777Z,99244.34
2023-03-29T16:22:07.319Z,99249.06
2023-03-29T16:24:35.857Z,99242.72
2023-03-29T16:27:04.371Z,99241.53
2023-03-29T16:29:31.961Z,99244.59
2023-03-29T16:31:59.858Z,99248.19
2023-03-29T16:34:27.518Z,99243.06
2023-03-29T16:36:55.007Z,99239.47
2023-03-29T16:39:25.448Z,99248.88
2023-03-29T16:41:52.904Z,99238.59
2023-03-29T16:44:25.713Z,99236.91
2023-03-29T16:46:58.449Z,99243.25
2023-03-29T16:49:26.074Z,99244.53
2023-03-29T16:51:53.521Z,99246.97
2023-03-29T16:54:21.347Z,99240.38
2023-03-29T16:56:48.924Z,99245.72
2023-03-29T16:59:16.676Z,99244.69
2023-03-29T17:01:44.442Z,99246.78
2023-03-29T17:04:11.911Z,99255.06
2023-03-29T17:06:39.268Z,99255.13
2023-03-29T17:09:07.382Z,99250.78
2023-03-29T17:11:35.235Z,99247.97
2023-03-29T17:14:03.202Z,99256.66
2023-03-29T17:16:30.789Z,99253.66
2023-03-29T17:19:02.385Z,99255.78
2023-03-29T17:21:30.041Z,99255.66
2023-03-29T17:23:57.499Z,99263.47
2023-03-29T17:26:24.944Z,99266.22
2023-03-29T17:28:52.352Z,99249.97
2023-03-29T17:31:19.930Z,99252.69
2023-03-29T17:33:47.682Z,99253.81
2023-03-29T17:36:15.878Z,99252.03
2023-03-29T17:38:43.339Z,99259.00
2023-03-29T17:41:11.154Z,99272.75
2023-03-29T17:43:38.579Z,99265.06
2023-03-29T17:46:06.579Z,99264.00
2023-03-29T17:48:34.180Z,99273.97
2023-03-29T17:51:01.645Z,99266.16
2023-03-29T17:53:29.040Z,99267.63
2023-03-29T17:55:56.428Z,99271.06
2023-03-29T17:58:24.117Z,99267.47
2023-03-29T18:00:51.560Z,99270.38
2023-03-29T18:03:19.054Z,99276.56
2023-03-29T18:05:46.802Z,99269.03
2023-03-29T18:08:15.052Z,99265.34
2023-03-29T18:10:43.112Z,99270.53
2023-03-29T18:13:13.893Z,99282.72
2023-03-29T18:15:42.142Z,99280.09
2023-03-29T18:18:09.596Z,99279.28
2023-03-29T18:20:37.344Z,99275.06
2023-03-29T18:23:04.797Z,99277.81
2023-03-29T18:25:32.190Z,99285.63
2023-03-29T18:27:59.580Z,99281.22
2023-03-29T18:30:27.142Z,99277.81
2023-03-29T18:32:54.675Z,99283.28
2023-03-29T18:35:22.551Z,99284.94
2023-03-29T18:37:50.061Z,99284.94
2023-03-29T18:40:20.497Z,99290.66
2023-03-29T18:42:48.024Z,99293.84
2023-03-29T18:45:16.123Z,99298.81
2023-03-29T18:47:43.904Z,99299.25
2023-03-29T18:50:13.290Z,99294.06
2023-03-29T18:52:40.870Z,99297.00
2023-03-29T18:55:08.413Z,99292.53
2023-03-29T18:57:36.177Z,99288.81
2023-03-29T19:00:10.561Z,99290.59
2023-03-29T19:02:40.028Z,99294.41
2023-03-29T19:05:08.906Z,99292.13
2023-03-29T19:07:37.193Z,99292.66
2023-03-29T19:10:07.041Z,99290.06
2023-03-29T19:12:35.299Z,99293.66
2023-03-29T19:15:02.952Z,99278.47
2023-03-29T19:17:30.806Z,99279.00
2023-03-29T19:19:58.435Z,99275.31
2023-03-29T19:22:26.718Z,99270.13
2023-03-29T19:24:54.190Z,99270.94
2023-03-29T19:27:21.670Z,99266.41
2023-03-29T19:29:49.642Z,99270.50
2023-03-29T19:32:17.355Z,99271.88
2023-03-29T19:34:44.849Z,99268.56
2023-03-29T19:37:12.207Z,99256.69
2023-03-29T19:39:41.493Z,99266.28
2023-03-29T19:42:10.264Z,99263.69
2023-03-29T19:44:38.440Z,99258.47
2023-03-29T19:47:06.027Z,99254.22
2023-03-29T19:49:38.271Z,99252.59
2023-03-29T19:52:06.347Z,99247.63
2023-03-29T19:54:34.139Z,99255.31
2023-03-29T19:57:02.885Z,99260.63
2023-03-29T19:59:31.511Z,99263.09
2023-03-29T20:01:59.308Z,99256.28
2023-03-29T20:04:28.827Z,99252.97
2023-03-29T20:06:57.624Z,99256.28
2023-03-29T20:09:25.472Z,99267.91
2023-03-29T20:11:52.881Z,99262.00
2023-03-29T20:14:20.363Z,99264.59
2023-03-29T20:16:50.473Z,99256.88
2023-03-29T20:19:18.766Z,99255.75
2023-03-29T20:21:46.179Z,99257.13
2023-03-29T20:24:13.607Z,99263.94
2023-03-29T20:26:41.118Z,99262.16
2023-03-29T20:29:08.722Z,99258.59
2023-03-29T20:31:36.301Z,99248.75
2023-03-29T20:34:03.773Z,99256.28
2023-03-29T20:36:31.704Z,99254.63
2023-03-29T20:39:00.256Z,99253.69
2023-03-29T20:41:27.653Z,99251.19
2023-03-29T20:44:02.975Z,99245.75
2023-03-29T20:46:33.362Z,99244.50
2023-03-29T20:49:07.421Z,99250.81
2023-03-29T20:51:35.891Z,99256.41
2023-03-29T20:54:07.730Z,99252.31
2023-03-29T20:56:39.872Z,99250.41
2023-03-29T20:59:10.935Z,99250.13
2023-03-29T21:01:42.430Z,99250.81
2023-03-29T21:04:10.972Z,99246.16
2023-03-29T21:06:41.780Z,99236.16
2023-03-29T21:09:09.170Z,99239.06
2023-03-29T21:11:36.619Z,99235.53
2023-03-29T21:14:04.677Z,99248.13
2023-03-29T21:16:32.317Z,99246.34
2023-03-29T21:18:59.711Z,99245.69
2023-03-29T21:21:27.198Z,99247.59
2023-03-29T21:23:54.578Z,99249.66
2023-03-29T21:26:22.889Z,99245.44
2023-03-29T21:28:50.377Z,99237.22
2023-03-29T21:31:17.933Z,99244.06
2023-03-29T21:33:45.478Z,99240.00
2023-03-29T21:36:12.961Z,99247.91
2023-03-29T21:38:40.488Z,99247.09
2023-03-29T21:41:12.071Z,99247.91
2023-03-29T21:43:40.402Z,99245.19
2023-03-29T21:46:09.400Z,99241.63
2023-03-29T21:48:37.406Z,99246.16
2023-03-29T21:51:06.638Z,99250.66
2023-03-29T21:53:34.938Z,99252.84
2023-03-29T21:56:02.762Z,99252.44
2023-03-29T21:58:30.358Z,99243.41
2023-03-29T22:00:57.930Z,99240.94
2023-03-29T22:03:25.857Z,99232.22
2023-03-29T22:06:03.310Z,99228.13
2023-03-29T22:08:31.379Z,99230.84
2023-03-29T22:11:08.180Z,99239.06
2023-03-29T22:13:36.069Z,99231.53
2023-03-29T22:16:05.142Z,99235.38
2023-03-29T22:18:43.354Z,99238.66
2023-03-29T22:21:22.635Z,99239.47
2023-03-29T22:23:53.430Z,99222.53
2023-03-29T22:26:27.594Z,99235.25
2023-03-29T22:28:56.810Z,99225.81
2023-03-29T22:31:28.684Z,99229.91
2023-03-29T22:33:56.482Z,99234.28
2023-03-29T22:36:31.112Z,99235.09
2023-03-29T22:38:58.723Z,99242.63
2023-03-29T22:41:28.056Z,99242.38
2023-03-29T22:43:58.520Z,99236.34
2023-03-29T22:46:26.436Z,99242.63
2023-03-29T22:48:54.175Z,99246.44
2023-03-29T22:51:21.805Z,99236.34
2023-03-29T22:53:49.427Z,99242.50
2023-03-29T22:56:17.701Z,99248.63
2023-03-29T22:58:45.762Z,99249.97
2023-03-29T23:01:13.692Z,99246.31
2023-03-29T23:03:41.730Z,99238.50
2023-03-29T23:06:09.308Z,99237.81
2023-03-29T23:08:36.849Z,99242.03
2023-03-29T23:11:05.170Z,99237.56
2023-03-29T23:13:33.499Z,99234.97
2023-03-29T23:16:03.632Z,99228.66
2023-03-29T23:18:34.942Z,99230.59
2023-03-29T23:21:05.672Z,99232.63
2023-03-29T23:23:34.044Z,99224.16
2023-03-29T23:26:02.502Z,99233.03
2023-03-29T23:28:31.456Z,99233.16
2023-03-29T23:31:05.966Z,99233.44
2023-03-29T23:33:35.927Z,99231.38
2023-03-29T23:36:07.782Z,99225.25
2023-03-29T23:38:38.737Z,99231.81
2023-03-29T23:41:10.907Z,99237.25
2023-03-29T23:43:43.977Z,99237.50
2023-03-29T23:46:15.651Z,99242.69
2023-03-29T23:48:50.806Z,99244.84
2023-03-29T23:51:23.041Z,99235.72
2023-03-29T23:53:51.424Z,99236.16
2023-03-29T23:56:18.930Z,99233.13
2023-03-29T23:58:46.780Z,99230.66
